createdAt,value
2023-04-18T00:01:38.723Z,102151.66
2023-04-18T00:04:13.646Z,102154.66
2023-04-18T00:06:46.296Z,102159.97
2023-04-18T00:09:18.106Z,102156.16
2023-04-18T00:11:51.075Z,102157.63
2023-04-18T00:14:23.110Z,102150.38
2023-04-18T00:16:54.886Z,102156.97
2023-04-18T00:19:26.719Z,102154.09
2023-04-18T00:21:59.842Z,102156.25
2023-04-18T00:24:31.768Z,102161.91
2023-04-18T00:27:05.061Z,102155.59
2023-04-18T00:29:36.940Z,102151.88
2023-04-18T00:32:09.005Z,102157.41
2023-04-18T00:34:40.948Z,102150.59
2023-04-18T00:37:12.616Z,102157.84
2023-04-18T00:39:44.450Z,102154.09
2023-04-18T00:42:17.630Z,102159.34
2023-04-18T00:44:49.723Z,102154.84
2023-04-18T00:47:21.602Z,102161.66
2023-04-18T00:49:53.897Z,102155.13
2023-04-18T00:52:28.411Z,102153.88
2023-04-18T00:55:00.429Z,102153.53
2023-04-18T00:57:33.856Z,102151.31
2023-04-18T01:00:10.015Z,102151.88
2023-04-18T01:02:43.935Z,102155.69
2023-04-18T01:05:15.923Z,102149.41
2023-04-18T01:07:48.382Z,102149.38
2023-04-18T01:10:20.845Z,102145.88
2023-04-18T01:13:11.093Z,102151.88
2023-04-18T01:15:45.100Z,102153.03
2023-04-18T01:18:18.978Z,102146.75
2023-04-18T01:20:54.567Z,102146.94
2023-04-18T01:23:26.623Z,102143.09
2023-04-18T01:25:59.832Z,102152.25
2023-04-18T01:28:31.751Z,102143.53
2023-04-18T01:31:03.615Z,102154.63
2023-04-18T01:33:35.433Z,102145.75
2023-04-18T01:36:07.451Z,102145.34
2023-04-18T01:38:39.275Z,102145.63
2023-04-18T01:41:12.456Z,102138.84
2023-04-18T01:43:44.245Z,102147.56
2023-04-18T01:46:16.750Z,102143.81
2023-04-18T01:48:48.573Z,102140.72
2023-04-18T01:51:20.436Z,102136.69
2023-04-18T01:53:52.225Z,102134.66
2023-04-18T01:56:25.379Z,102138.56
2023-04-18T01:58:57.322Z,102133.03
2023-04-18T02:01:29.167Z,102137.50
2023-04-18T02:04:01.147Z,102137.69
2023-04-18T02:06:34.190Z,102132.81
2023-04-18T02:09:07.422Z,102130.91
2023-04-18T02:11:40.344Z,102130.88
2023-04-18T02:14:12.356Z,102128.75
2023-04-18T02:16:44.211Z,102133.00
2023-04-18T02:19:16.051Z,102128.53
2023-04-18T02:21:47.891Z,102127.69
2023-04-18T02:24:19.735Z,102129.06
2023-04-18T02:26:53.810Z,102132.34
2023-04-18T02:29:25.749Z,102131.78
2023-04-18T02:31:58.247Z,102126.88
2023-04-18T02:34:29.959Z,102125.50
2023-04-18T02:37:01.910Z,102129.03
2023-04-18T02:39:33.686Z,102132.97
2023-04-18T02:42:06.894Z,102129.88
2023-04-18T02:44:38.821Z,102132.56
2023-04-18T02:47:10.848Z,102129.53
2023-04-18T02:49:42.602Z,102127.09
2023-04-18T02:52:14.474Z,102126.13
2023-04-18T02:54:46.367Z,102125.31
2023-04-18T02:57:19.388Z,102131.09
2023-04-18T02:59:51.162Z,102137.19
2023-04-18T03:02:23.261Z,102134.41
2023-04-18T03:04:56.254Z,102139.28
2023-04-18T03:07:27.896Z,102138.78
2023-04-18T03:09:59.876Z,102142.03
2023-04-18T03:12:32.796Z,102134.16
2023-04-18T03:15:04.838Z,102139.47
2023-04-18T03:17:37.136Z,102131.88
2023-04-18T03:20:12.158Z,102131.59
2023-04-18T03:22:43.698Z,102141.66
2023-04-18T03:25:15.574Z,102145.34
2023-04-18T03:27:48.638Z,102132.16
2023-04-18T03:30:21.220Z,102137.19
2023-04-18T03:32:53.761Z,102138.78
2023-04-18T03:35:25.381Z,102144.75
2023-04-18T03:37:57.419Z,102151.03
2023-04-18T03:40:28.971Z,102148.00
2023-04-18T03:43:01.885Z,102150.00
2023-04-18T03:45:33.785Z,102152.97
2023-04-18T03:48:06.275Z,102153.53
2023-04-18T03:50:38.131Z,102155.31
2023-04-18T03:53:09.985Z,102156.03
2023-04-18T03:55:42.324Z,102157.34
2023-04-18T03:58:16.164Z,102161.63
2023-04-18T04:00:47.747Z,102159.25
2023-04-18T04:03:19.856Z,102160.38
2023-04-18T04:05:51.909Z,102157.25
2023-04-18T04:08:23.752Z,102158.56
2023-04-18T04:10:55.556Z,102161.91
2023-04-18T04:13:28.520Z,102154.88
2023-04-18T04:16:00.546Z,102159.66
2023-04-18T04:18:32.175Z,102163.03
2023-04-18T04:21:04.050Z,102170.56
2023-04-18T04:23:35.968Z,102170.94
2023-04-18T04:26:08.218Z,102165.34
2023-04-18T04:28:41.257Z,102162.84
2023-04-18T04:31:13.169Z,102161.38
2023-04-18T04:33:44.941Z,102168.38
2023-04-18T04:36:23.001Z,102172.66
2023-04-18T04:38:55.028Z,102175.59
2023-04-18T04:41:27.763Z,102173.59
2023-04-18T04:44:01.784Z,102175.00
2023-04-18T04:46:34.506Z,102180.94
2023-04-18T04:49:06.415Z,102182.66
2023-04-18T04:51:38.386Z,102186.03
2023-04-18T04:54:11.060Z,102182.81
2023-04-18T04:56:42.985Z,102191.75
2023-04-18T04:59:16.319Z,102187.66
2023-04-18T05:01:48.128Z,102193.66
2023-04-18T05:04:20.265Z,102195.66
2023-04-18T05:06:52.372Z,102201.44
2023-04-18T05:09:24.235Z,102199.44
2023-04-18T05:11:56.106Z,102198.50
2023-04-18T05:14:29.148Z,102199.34
2023-04-18T05:17:01.151Z,102198.41
2023-04-18T05:19:32.932Z,102201.44
2023-04-18T05:22:04.706Z,102204.59
2023-04-18T05:24:36.543Z,102206.19
2023-04-18T05:27:08.479Z,102210.47
2023-04-18T05:29:41.593Z,102203.53
2023-04-18T05:32:13.422Z,102211.03
2023-04-18T05:34:45.256Z,102208.84
2023-04-18T05:37:17.369Z,102217.75
2023-04-18T05:39:49.167Z,102218.91
2023-04-18T05:42:20.935Z,102213.97
2023-04-18T05:44:54.152Z,102217.75
2023-04-18T05:47:28.424Z,102216.81
2023-04-18T05:50:00.460Z,102226.53
2023-04-18T05:52:32.843Z,102226.22
2023-04-18T05:55:04.755Z,102222.88
2023-04-18T05:57:36.636Z,102228.81
2023-04-18T06:00:12.936Z,102231.06
2023-04-18T06:02:45.117Z,102231.84
2023-04-18T06:05:17.648Z,102243.50
2023-04-18T06:07:49.648Z,102244.47
2023-04-18T06:10:21.554Z,102247.59
2023-04-18T06:12:53.453Z,102242.47
2023-04-18T06:15:26.635Z,102240.56
2023-04-18T06:17:58.614Z,102236.66
2023-04-18T06:20:30.478Z,102243.63
2023-04-18T06:23:02.194Z,102248.16
2023-04-18T06:25:34.062Z,102242.66
2023-04-18T06:28:05.960Z,102248.75
2023-04-18T06:30:39.198Z,102245.31
2023-04-18T06:33:11.333Z,102254.47
2023-04-18T06:35:43.499Z,102258.81
2023-04-18T06:38:15.943Z,102256.06
2023-04-18T06:40:47.910Z,102256.72
2023-04-18T06:43:19.687Z,102267.38
2023-04-18T06:45:52.756Z,102271.81
2023-04-18T06:48:24.644Z,102277.69
2023-04-18T06:50:56.571Z,102276.00
2023-04-18T06:53:28.476Z,102281.22
2023-04-18T06:56:00.391Z,102279.16
2023-04-18T06:58:32.271Z,102272.50
2023-04-18T07:01:06.153Z,102280.66
2023-04-18T07:03:37.940Z,102278.75
2023-04-18T07:06:11.587Z,102275.34
2023-04-18T07:08:43.450Z,102275.34
2023-04-18T07:11:18.483Z,102278.41
2023-04-18T07:13:50.485Z,102280.28
2023-04-18T07:16:23.436Z,102284.53
2023-04-18T07:18:55.249Z,102282.19
2023-04-18T07:21:27.370Z,102287.59
2023-04-18T07:23:59.012Z,102292.44
2023-04-18T07:26:30.868Z,102289.41
2023-04-18T07:29:02.786Z,102288.66
2023-04-18T07:31:36.098Z,102297.19
2023-04-18T07:34:08.970Z,102282.94
2023-04-18T07:36:41.902Z,102289.59
2023-04-18T07:39:13.781Z,102291.66
2023-04-18T07:41:45.799Z,102298.78
2023-04-18T07:44:18.214Z,102292.44
2023-04-18T07:46:51.144Z,102291.94
2023-04-18T07:49:23.014Z,102287.09
2023-04-18T07:51:54.824Z,102285.09
2023-04-18T07:54:26.765Z,102286.78
2023-04-18T07:56:59.049Z,102295.63
2023-04-18T07:59:32.133Z,102288.84
2023-04-18T08:02:05.236Z,102295.78
2023-04-18T08:04:37.063Z,102291.97
2023-04-18T08:07:08.704Z,102289.66
2023-04-18T08:09:40.548Z,102295.75
2023-04-18T08:12:12.342Z,102296.28
2023-04-18T08:14:44.157Z,102285.34
2023-04-18T08:17:17.122Z,102294.34
2023-04-18T08:19:48.951Z,102295.53
2023-04-18T08:22:20.951Z,102294.06
2023-04-18T08:27:28.959Z,102284.72
2023-04-18T08:30:01.712Z,102290.28
2023-04-18T08:32:36.685Z,102293.28
2023-04-18T08:35:09.366Z,102291.69
2023-04-18T08:37:41.176Z,102295.44
2023-04-18T08:40:14.141Z,102290.41
2023-04-18T08:42:48.857Z,102291.16
2023-04-18T08:45:24.175Z,102290.31
2023-04-18T08:48:01.285Z,102296.22
2023-04-18T08:50:34.652Z,102298.88
2023-04-18T08:53:08.022Z,102302.06
2023-04-18T08:55:40.489Z,102305.16
2023-04-18T08:58:12.412Z,102301.22
2023-04-18T09:00:53.031Z,102308.88
2023-04-18T09:03:41.525Z,102305.03
2023-04-18T09:06:20.216Z,102300.75
2023-04-18T09:09:03.899Z,102304.25
2023-04-18T09:11:36.103Z,102302.22
2023-04-18T09:14:08.018Z,102312.47
2023-04-18T09:16:50.485Z,102316.75
2023-04-18T09:19:23.752Z,102305.63
2023-04-18T09:22:04.503Z,102314.13
2023-04-18T09:24:37.119Z,102317.56
2023-04-18T09:27:14.895Z,102312.94
2023-04-18T09:29:50.314Z,102305.16
2023-04-18T09:32:29.628Z,102307.09
2023-04-18T09:35:05.420Z,102307.91
2023-04-18T09:37:39.146Z,102312.94
2023-04-18T09:40:21.617Z,102313.88
2023-04-18T09:42:56.509Z,102309.09
2023-04-18T09:45:29.851Z,102305.19
2023-04-18T09:48:01.762Z,102303.56
2023-04-18T09:50:37.855Z,102303.56
2023-04-18T09:53:13.280Z,102305.97
2023-04-18T09:55:47.245Z,102308.78
2023-04-18T09:58:22.294Z,102309.63
2023-04-18T10:00:57.304Z,102301.84
2023-04-18T10:03:42.334Z,102307.63
2023-04-18T10:06:17.836Z,102305.19
2023-04-18T10:08:52.745Z,102308.38
2023-04-18T10:11:25.085Z,102303.66
2023-04-18T10:14:03.563Z,102304.03
2023-04-18T10:16:36.255Z,102302.09
2023-04-18T10:19:26.828Z,102303.81
2023-04-18T10:22:02.761Z,102310.41
2023-04-18T10:24:57.056Z,102307.72
2023-04-18T10:28:01.217Z,102313.31
2023-04-18T10:31:03.479Z,102302.38
2023-04-18T10:33:40.942Z,102307.97
2023-04-18T10:36:21.686Z,102310.94
2023-04-18T10:39:00.652Z,102301.69
2023-04-18T10:41:35.585Z,102300.25
2023-04-18T10:44:24.230Z,102298.34
2023-04-18T10:47:32.717Z,102296.44
2023-04-18T10:50:07.070Z,102299.50
2023-04-18T10:52:39.402Z,102287.84
2023-04-18T10:55:32.713Z,102298.66
2023-04-18T10:58:06.283Z,102291.94
2023-04-18T11:00:38.124Z,102289.41
2023-04-18T11:03:10.572Z,102283.81
2023-04-18T11:05:42.456Z,102287.34
2023-04-18T11:08:28.616Z,102284.28
2023-04-18T11:11:09.401Z,102282.09
2023-04-18T11:13:55.385Z,102288.78
2023-04-18T11:16:34.877Z,102284.53
2023-04-18T11:19:19.118Z,102289.88
2023-04-18T11:21:51.678Z,102289.28
2023-04-18T11:24:27.344Z,102295.00
2023-04-18T11:27:00.678Z,102290.84
2023-04-18T11:29:32.312Z,102287.91
2023-04-18T11:32:06.601Z,102287.66
2023-04-18T11:34:38.617Z,102287.38
2023-04-18T11:37:11.394Z,102295.31
2023-04-18T11:39:46.525Z,102284.69
2023-04-18T11:42:19.837Z,102285.53
2023-04-18T11:44:51.704Z,102294.06
2023-04-18T11:47:31.618Z,102293.28
2023-04-18T11:50:06.946Z,102293.94
2023-04-18T11:52:41.442Z,102299.16
2023-04-18T11:55:22.053Z,102286.72
2023-04-18T11:57:59.644Z,102293.09
2023-04-18T12:00:38.461Z,102294.41
2023-04-18T12:03:18.832Z,102295.75
2023-04-18T12:05:59.002Z,102296.88
2023-04-18T12:08:32.224Z,102298.72
2023-04-18T12:11:03.797Z,102296.63
2023-04-18T12:13:38.101Z,102295.53
2023-04-18T12:16:11.330Z,102301.97
2023-04-18T12:18:42.982Z,102292.75
2023-04-18T12:21:17.052Z,102294.09
2023-04-18T12:23:48.702Z,102296.00
2023-04-18T12:26:22.790Z,102287.16
2023-04-18T12:28:56.885Z,102281.06
2023-04-18T12:31:28.858Z,102283.94
2023-04-18T12:34:00.538Z,102271.16
2023-04-18T12:36:32.435Z,102276.75
2023-04-18T12:39:04.461Z,102280.28
2023-04-18T12:41:36.112Z,102277.19
2023-04-18T12:44:09.764Z,102286.50
2023-04-18T12:46:41.673Z,102274.91
2023-04-18T12:49:13.699Z,102283.59
2023-04-18T12:51:45.545Z,102277.63
2023-04-18T12:54:17.380Z,102287.31
2023-04-18T12:56:50.187Z,102274.84
2023-04-18T12:59:23.317Z,102266.69
2023-04-18T13:01:55.210Z,102270.94
2023-04-18T13:04:27.145Z,102267.50
2023-04-18T13:06:59.179Z,102265.81
2023-04-18T13:09:31.546Z,102269.50
2023-04-18T13:12:03.518Z,102266.81
2023-04-18T13:14:36.446Z,102260.44
2023-04-18T13:17:08.677Z,102266.41
2023-04-18T13:19:41.467Z,102254.09
2023-04-18T13:22:13.300Z,102260.72
2023-04-18T13:24:45.145Z,102266.84
2023-04-18T13:27:17.126Z,102256.91
2023-04-18T13:29:50.167Z,102257.91
2023-04-18T13:32:22.202Z,102259.03
2023-04-18T13:34:56.065Z,102268.03
2023-04-18T13:37:28.224Z,102251.88
2023-04-18T13:40:00.238Z,102258.47
2023-04-18T13:42:32.114Z,102249.09
2023-04-18T13:45:05.188Z,102246.56
2023-04-18T13:47:37.498Z,102253.03
2023-04-18T13:50:11.752Z,102244.28
2023-04-18T13:52:43.526Z,102246.84
2023-04-18T13:55:16.083Z,102248.31
2023-04-18T13:57:47.735Z,102244.41
2023-04-18T14:00:23.413Z,102239.44
2023-04-18T14:02:57.509Z,102240.63
2023-04-18T14:05:30.531Z,102228.00
2023-04-18T14:08:03.935Z,102235.13
2023-04-18T14:10:36.109Z,102228.88
2023-04-18T14:13:07.976Z,102235.66
2023-04-18T14:15:41.286Z,102231.09
2023-04-18T14:18:13.176Z,102228.88
2023-04-18T14:20:45.036Z,102221.78
2023-04-18T14:23:16.963Z,102221.25
2023-04-18T14:25:48.771Z,102220.31
2023-04-18T14:28:24.765Z,102221.59
2023-04-18T14:31:01.933Z,102226.78
2023-04-18T14:33:34.946Z,102213.88
2023-04-18T14:36:09.283Z,102214.03
2023-04-18T14:38:41.626Z,102208.53
2023-04-18T14:41:13.544Z,102217.38
2023-04-18T14:43:45.401Z,102214.19
2023-04-18T14:46:18.858Z,102213.31
2023-04-18T14:48:50.914Z,102213.84
2023-04-18T14:51:22.768Z,102206.59
2023-04-18T14:53:55.472Z,102208.56
2023-04-18T14:56:27.202Z,102211.91
2023-04-18T14:58:59.023Z,102206.59
2023-04-18T15:01:32.407Z,102203.75
2023-04-18T15:04:04.458Z,102200.25
2023-04-18T15:06:36.937Z,102206.44
2023-04-18T15:09:08.620Z,102193.69
2023-04-18T15:11:40.540Z,102202.63
2023-04-18T15:14:14.113Z,102199.91
2023-04-18T15:16:49.823Z,102189.66
2023-04-18T15:19:21.775Z,102190.09
2023-04-18T15:21:54.160Z,102192.91
2023-04-18T15:24:26.331Z,102194.09
2023-04-18T15:26:58.733Z,102194.72
2023-04-18T15:29:30.570Z,102190.44
2023-04-18T15:32:05.090Z,102203.50
2023-04-18T15:34:37.099Z,102203.47
2023-04-18T15:37:09.304Z,102207.69
2023-04-18T15:39:40.930Z,102212.28
2023-04-18T15:42:12.881Z,102199.09
2023-04-18T15:44:44.515Z,102209.44
2023-04-18T15:47:17.656Z,102203.94
2023-04-18T15:49:50.578Z,102200.34
2023-04-18T15:52:22.419Z,102197.88
2023-04-18T15:54:55.369Z,102203.72
2023-04-18T15:57:29.272Z,102203.59
2023-04-18T16:00:01.206Z,102201.34
2023-04-18T16:02:34.234Z,102203.91
2023-04-18T16:05:05.962Z,102194.09
2023-04-18T16:07:38.118Z,102201.38
2023-04-18T16:10:11.153Z,102197.09
2023-04-18T16:12:43.208Z,102201.59
2023-04-18T16:15:15.600Z,102206.00
2023-04-18T16:17:49.366Z,102200.03
2023-04-18T16:20:21.223Z,102204.13
2023-04-18T16:22:53.079Z,102201.44
2023-04-18T16:25:24.836Z,102204.50
2023-04-18T16:27:56.689Z,102210.59
2023-04-18T16:30:28.498Z,102210.06
2023-04-18T16:33:01.693Z,102212.19
2023-04-18T16:35:33.633Z,102211.25
2023-04-18T16:38:05.362Z,102203.41
2023-04-18T16:40:36.965Z,102211.69
2023-04-18T16:43:08.815Z,102212.00
2023-04-18T16:45:40.847Z,102213.09
2023-04-18T16:48:13.790Z,102207.97
2023-04-18T16:50:45.713Z,102210.69
2023-04-18T16:53:17.676Z,102204.75
2023-04-18T16:55:50.327Z,102212.25
2023-04-18T16:58:23.163Z,102216.78
2023-04-18T17:00:54.753Z,102209.56
2023-04-18T17:03:27.928Z,102210.66
2023-04-18T17:06:00.794Z,102210.03
2023-04-18T17:08:33.658Z,102219.78
2023-04-18T17:11:05.507Z,102212.19
2023-04-18T17:13:36.527Z,102208.78
2023-04-18T17:16:09.541Z,102208.22
2023-04-18T17:18:42.730Z,102206.34
2023-04-18T17:21:14.501Z,102212.81
2023-04-18T17:23:47.389Z,102214.78
2023-04-18T17:26:19.367Z,102223.00
2023-04-18T17:28:51.286Z,102221.16
2023-04-18T17:31:23.315Z,102224.84
2023-04-18T17:33:56.376Z,102219.03
2023-04-18T17:36:29.761Z,102218.47
2023-04-18T17:39:06.158Z,102222.16
2023-04-18T17:41:41.763Z,102220.47
2023-04-18T17:44:13.682Z,102223.19
2023-04-18T17:46:46.770Z,102213.25
2023-04-18T17:49:20.501Z,102221.88
2023-04-18T17:51:52.364Z,102217.25
2023-04-18T17:54:24.204Z,102217.22
2023-04-18T17:56:57.754Z,102221.34
2023-04-18T17:59:37.422Z,102218.66
2023-04-18T18:02:11.640Z,102222.50
2023-04-18T18:04:44.865Z,102226.88
2023-04-18T18:07:16.638Z,102229.28
2023-04-18T18:09:48.656Z,102232.97
2023-04-18T18:12:20.473Z,102229.28
2023-04-18T18:14:52.354Z,102231.53
2023-04-18T18:17:24.357Z,102224.75
2023-04-18T18:19:57.485Z,102229.84
2023-04-18T18:22:29.162Z,102228.03
2023-04-18T18:25:00.838Z,102231.72
2023-04-18T18:27:32.700Z,102228.34
2023-04-18T18:30:06.624Z,102224.91
2023-04-18T18:32:38.462Z,102227.78
2023-04-18T18:35:12.927Z,102235.56
2023-04-18T18:37:46.216Z,102233.69
2023-04-18T18:40:18.020Z,102236.38
2023-04-18T18:42:51.360Z,102235.94
2023-04-18T18:45:24.931Z,102230.41
2023-04-18T18:47:56.868Z,102235.50
2023-04-18T18:50:29.855Z,102229.69
2023-04-18T18:53:02.374Z,102236.03
2023-04-18T18:55:34.843Z,102240.00
2023-04-18T18:58:08.209Z,102236.06
2023-04-18T19:00:41.498Z,102241.72
2023-04-18T19:03:18.325Z,102242.97
2023-04-18T19:05:51.582Z,102252.75
2023-04-18T19:08:24.971Z,102259.09
2023-04-18T19:10:56.883Z,102259.09
2023-04-18T19:13:28.750Z,102264.63
2023-04-18T19:16:00.745Z,102261.50
2023-04-18T19:18:32.728Z,102261.72
2023-04-18T19:21:05.723Z,102272.91
2023-04-18T19:23:37.632Z,102262.81
2023-04-18T19:26:09.545Z,102273.69
2023-04-18T19:28:41.911Z,102281.38
2023-04-18T19:31:13.829Z,102272.81
2023-04-18T19:33:45.942Z,102276.56
2023-04-18T19:36:19.021Z,102270.91
2023-04-18T19:38:50.745Z,102276.81
2023-04-18T19:41:22.650Z,102273.94
2023-04-18T19:43:54.484Z,102277.63
2023-04-18T19:46:27.905Z,102281.28
2023-04-18T19:48:59.569Z,102274.94
2023-04-18T19:51:32.679Z,102278.81
2023-04-18T19:54:04.620Z,102277.22
2023-04-18T19:56:36.530Z,102278.94
2023-04-18T19:59:08.383Z,102278.41
2023-04-18T20:01:40.393Z,102281.38
2023-04-18T20:04:14.291Z,102273.09
2023-04-18T20:06:47.605Z,102276.38
2023-04-18T20:09:19.783Z,102286.53
2023-04-18T20:11:54.202Z,102281.97
2023-04-18T20:14:26.191Z,102277.72
2023-04-18T20:16:57.842Z,102280.91
2023-04-18T20:19:29.934Z,102288.38
2023-04-18T20:22:03.719Z,102293.75
2023-04-18T20:24:35.578Z,102293.22
2023-04-18T20:27:07.418Z,102289.81
2023-04-18T20:29:39.379Z,102294.94
2023-04-18T20:32:12.341Z,102295.06
2023-04-18T20:34:44.131Z,102289.97
2023-04-18T20:37:19.748Z,102293.06
2023-04-18T20:39:52.779Z,102290.75
2023-04-18T20:42:24.760Z,102301.13
2023-04-18T20:44:58.739Z,102290.69
2023-04-18T20:47:30.394Z,102290.94
2023-04-18T20:50:02.287Z,102296.78
2023-04-18T20:52:35.463Z,102298.13
2023-04-18T20:55:07.385Z,102306.16
2023-04-18T20:57:39.330Z,102301.66
2023-04-18T21:00:14.265Z,102301.66
2023-04-18T21:02:46.522Z,102307.03
2023-04-18T21:05:18.233Z,102299.44
2023-04-18T21:07:51.389Z,102307.22
2023-04-18T21:10:23.108Z,102301.78
2023-04-18T21:12:54.974Z,102306.03
2023-04-18T21:15:26.877Z,102306.78
2023-04-18T21:17:58.774Z,102307.41
2023-04-18T21:20:30.635Z,102304.38
2023-04-18T21:23:03.678Z,102308.72
2023-04-18T21:25:35.516Z,102303.44
2023-04-18T21:28:07.888Z,102308.28
2023-04-18T21:30:39.779Z,102305.25
2023-04-18T21:33:11.842Z,102313.91
2023-04-18T21:35:43.488Z,102306.84
2023-04-18T21:38:16.662Z,102311.75
2023-04-18T21:40:48.925Z,102308.44
2023-04-18T21:43:20.638Z,102305.16
2023-04-18T21:45:52.532Z,102314.88
2023-04-18T21:48:24.435Z,102301.28
2023-04-18T21:50:59.198Z,102305.78
2023-04-18T21:53:32.437Z,102310.44
2023-04-18T21:56:05.460Z,102307.88
2023-04-18T21:58:37.419Z,102309.59
2023-04-18T22:01:09.331Z,102306.16
2023-04-18T22:03:41.645Z,102301.31
2023-04-18T22:06:13.410Z,102305.19
2023-04-18T22:08:46.575Z,102294.97
2023-04-18T22:11:18.954Z,102299.38
2023-04-18T22:13:54.193Z,102297.41
2023-04-18T22:16:28.691Z,102300.47
2023-04-18T22:19:01.072Z,102300.72
2023-04-18T22:21:32.974Z,102291.84
2023-04-18T22:24:06.024Z,102288.66
2023-04-18T22:26:37.892Z,102293.78
2023-04-18T22:29:09.857Z,102292.69
2023-04-18T22:31:43.049Z,102295.72
2023-04-18T22:34:14.931Z,102296.59
2023-04-18T22:36:46.894Z,102297.94
2023-04-18T22:39:20.292Z,102304.75
2023-04-18T22:41:52.100Z,102305.94
2023-04-18T22:44:23.945Z,102306.44
2023-04-18T22:46:55.902Z,102292.81
2023-04-18T22:49:27.558Z,102295.72
2023-04-18T22:51:59.598Z,102306.03
2023-04-18T22:54:32.572Z,102301.53
2023-04-18T22:57:04.467Z,102296.75
2023-04-18T22:59:36.415Z,102306.84
2023-04-18T23:02:08.347Z,102297.97
2023-04-18T23:04:42.159Z,102308.06
2023-04-18T23:07:14.323Z,102301.22
2023-04-18T23:09:47.380Z,102301.97
2023-04-18T23:12:19.214Z,102303.03
2023-04-18T23:14:51.105Z,102301.19
2023-04-18T23:17:23.008Z,102301.19
2023-04-18T23:19:54.860Z,102291.97
2023-04-18T23:22:26.713Z,102287.13
2023-04-18T23:25:00.175Z,102293.44
2023-04-18T23:27:32.053Z,102292.06
2023-04-18T23:30:03.994Z,102280.66
2023-04-18T23:32:35.864Z,102285.38
2023-04-18T23:35:07.820Z,102283.91
2023-04-18T23:37:40.118Z,102284.63
2023-04-18T23:40:14.491Z,102286.06
2023-04-18T23:42:47.096Z,102286.28
2023-04-18T23:45:20.634Z,102286.91
2023-04-18T23:47:52.479Z,102277.16
2023-04-18T23:50:24.569Z,102283.31
2023-04-18T23:52:56.385Z,102286.00
2023-04-18T23:55:29.738Z,102276.53
2023-04-18T23:58:01.730Z,102274.53
